sensor_id;sensor_type;location;lat;lon;timestamp;P1;durP1;ratioP1;P2;durP2;ratioP2
11425;SDS011;5769;47.998;7.788;2022-10-31T00:00:53;126.67;;;24.10;;
11425;SDS011;5769;47.998;7.788;2022-10-31T00:03:20;126.33;;;24.00;;
11425;SDS011;5769;47.998;7.788;2022-10-31T00:05:48;126.33;;;24.13;;
11425;SDS011;5769;47.998;7.788;2022-10-31T00:08:15;125.53;;;24.20;;
11425;SDS011;5769;47.998;7.788;2022-10-31T00:10:45;125.53;;;24.23;;
11425;SDS011;5769;47.998;7.788;2022-10-31T00:13:13;125.13;;;24.03;;
11425;SDS011;5769;47.998;7.788;2022-10-31T00:15:40;124.13;;;23.93;;
11425;SDS011;5769;47.998;7.788;2022-10-31T00:18:07;126.83;;;24.30;;
11425;SDS011;5769;47.998;7.788;2022-10-31T00:20:35;122.93;;;23.80;;
11425;SDS011;5769;47.998;7.788;2022-10-31T00:23:02;124.93;;;24.27;;
11425;SDS011;5769;47.998;7.788;2022-10-31T00:25:32;125.07;;;24.30;;
11425;SDS011;5769;47.998;7.788;2022-10-31T00:28:01;125.27;;;24.27;;
11425;SDS011;5769;47.998;7.788;2022-10-31T00:30:28;125.20;;;24.23;;
11425;SDS011;5769;47.998;7.788;2022-10-31T00:32:55;124.93;;;24.30;;
11425;SDS011;5769;47.998;7.788;2022-10-31T00:35:22;124.83;;;24.20;;
11425;SDS011;5769;47.998;7.788;2022-10-31T00:37:48;123.73;;;24.10;;
11425;SDS011;5769;47.998;7.788;2022-10-31T00:40:15;123.97;;;23.97;;
11425;SDS011;5769;47.998;7.788;2022-10-31T00:42:42;125.70;;;24.30;;
11425;SDS011;5769;47.998;7.788;2022-10-31T00:45:11;125.33;;;24.13;;
11425;SDS011;5769;47.998;7.788;2022-10-31T00:47:38;125.20;;;24.17;;
11425;SDS011;5769;47.998;7.788;2022-10-31T00:50:05;124.83;;;24.13;;
11425;SDS011;5769;47.998;7.788;2022-10-31T00:52:32;127.70;;;24.20;;
11425;SDS011;5769;47.998;7.788;2022-10-31T00:54:59;125.60;;;23.80;;
11425;SDS011;5769;47.998;7.788;2022-10-31T00:57:25;126.67;;;24.03;;
11425;SDS011;5769;47.998;7.788;2022-10-31T00:59:52;127.17;;;24.10;;
11425;SDS011;5769;47.998;7.788;2022-10-31T01:02:20;126.60;;;24.07;;
11425;SDS011;5769;47.998;7.788;2022-10-31T01:04:47;126.37;;;24.20;;
11425;SDS011;5769;47.998;7.788;2022-10-31T01:07:13;125.80;;;24.13;;
11425;SDS011;5769;47.998;7.788;2022-10-31T01:09:40;126.13;;;24.27;;
11425;SDS011;5769;47.998;7.788;2022-10-31T01:12:07;125.37;;;24.20;;
11425;SDS011;5769;47.998;7.788;2022-10-31T01:14:34;125.90;;;24.30;;
11425;SDS011;5769;47.998;7.788;2022-10-31T01:17:00;123.60;;;23.90;;
11425;SDS011;5769;47.998;7.788;2022-10-31T01:19:29;124.40;;;24.00;;
11425;SDS011;5769;47.998;7.788;2022-10-31T01:21:55;125.03;;;24.20;;
11425;SDS011;5769;47.998;7.788;2022-10-31T01:24:22;125.03;;;24.20;;
11425;SDS011;5769;47.998;7.788;2022-10-31T01:26:49;125.43;;;24.20;;
11425;SDS011;5769;47.998;7.788;2022-10-31T01:29:15;126.90;;;24.10;;
11425;SDS011;5769;47.998;7.788;2022-10-31T01:31:42;126.27;;;23.87;;
11425;SDS011;5769;47.998;7.788;2022-10-31T01:34:09;126.63;;;23.87;;
11425;SDS011;5769;47.998;7.788;2022-10-31T01:36:42;126.63;;;23.83;;
11425;SDS011;5769;47.998;7.788;2022-10-31T01:39:13;126.33;;;23.63;;
11425;SDS011;5769;47.998;7.788;2022-10-31T01:41:42;126.87;;;23.57;;
11425;SDS011;5769;47.998;7.788;2022-10-31T01:47:17;126.47;;;23.80;;
11425;SDS011;5769;47.998;7.788;2022-10-31T01:49:48;127.17;;;23.73;;
11425;SDS011;5769;47.998;7.788;2022-10-31T01:52:20;126.40;;;23.60;;
11425;SDS011;5769;47.998;7.788;2022-10-31T01:54:51;127.07;;;23.70;;
11425;SDS011;5769;47.998;7.788;2022-10-31T01:57:22;127.10;;;23.60;;
11425;SDS011;5769;47.998;7.788;2022-10-31T01:59:50;126.00;;;23.67;;
11425;SDS011;5769;47.998;7.788;2022-10-31T02:02:22;127.13;;;23.80;;
11425;SDS011;5769;47.998;7.788;2022-10-31T02:04:49;126.43;;;23.67;;
11425;SDS011;5769;47.998;7.788;2022-10-31T02:07:17;126.50;;;23.70;;
11425;SDS011;5769;47.998;7.788;2022-10-31T02:09:53;126.40;;;23.83;;
11425;SDS011;5769;47.998;7.788;2022-10-31T02:12:21;125.80;;;23.50;;
11425;SDS011;5769;47.998;7.788;2022-10-31T02:14:48;126.20;;;23.80;;
11425;SDS011;5769;47.998;7.788;2022-10-31T02:17:14;126.77;;;23.70;;
11425;SDS011;5769;47.998;7.788;2022-10-31T02:19:45;127.07;;;23.90;;
11425;SDS011;5769;47.998;7.788;2022-10-31T02:22:19;124.93;;;23.70;;
11425;SDS011;5769;47.998;7.788;2022-10-31T02:25:01;126.90;;;24.03;;
11425;SDS011;5769;47.998;7.788;2022-10-31T02:27:48;126.57;;;24.13;;
11425;SDS011;5769;47.998;7.788;2022-10-31T02:30:30;126.27;;;24.10;;
11425;SDS011;5769;47.998;7.788;2022-10-31T02:33:09;125.97;;;24.00;;
11425;SDS011;5769;47.998;7.788;2022-10-31T02:35:49;127.30;;;24.10;;
11425;SDS011;5769;47.998;7.788;2022-10-31T02:38:25;126.37;;;24.03;;
11425;SDS011;5769;47.998;7.788;2022-10-31T02:41:01;126.57;;;24.03;;
11425;SDS011;5769;47.998;7.788;2022-10-31T02:43:35;126.00;;;23.90;;
11425;SDS011;5769;47.998;7.788;2022-10-31T02:46:11;126.87;;;24.00;;
11425;SDS011;5769;47.998;7.788;2022-10-31T02:48:42;126.27;;;23.73;;
11425;SDS011;5769;47.998;7.788;2022-10-31T02:51:11;126.53;;;23.47;;
11425;SDS011;5769;47.998;7.788;2022-10-31T02:53:38;126.10;;;23.73;;
11425;SDS011;5769;47.998;7.788;2022-10-31T02:56:06;126.43;;;23.57;;
11425;SDS011;5769;47.998;7.788;2022-10-31T02:58:39;126.47;;;23.70;;
11425;SDS011;5769;47.998;7.788;2022-10-31T03:01:21;127.00;;;23.80;;
11425;SDS011;5769;47.998;7.788;2022-10-31T03:04:05;126.57;;;23.77;;
11425;SDS011;5769;47.998;7.788;2022-10-31T03:06:49;126.73;;;23.87;;
11425;SDS011;5769;47.998;7.788;2022-10-31T03:09:23;126.30;;;23.90;;
11425;SDS011;5769;47.998;7.788;2022-10-31T03:11:56;127.73;;;23.97;;
11425;SDS011;5769;47.998;7.788;2022-10-31T03:14:30;126.27;;;23.87;;
11425;SDS011;5769;47.998;7.788;2022-10-31T03:17:04;126.27;;;23.87;;
11425;SDS011;5769;47.998;7.788;2022-10-31T03:19:36;127.37;;;24.00;;
11425;SDS011;5769;47.998;7.788;2022-10-31T03:22:06;127.83;;;23.90;;
11425;SDS011;5769;47.998;7.788;2022-10-31T03:24:37;126.67;;;24.00;;
11425;SDS011;5769;47.998;7.788;2022-10-31T03:27:05;126.27;;;24.00;;
11425;SDS011;5769;47.998;7.788;2022-10-31T03:29:36;127.20;;;24.10;;
11425;SDS011;5769;47.998;7.788;2022-10-31T03:32:06;128.17;;;24.03;;
11425;SDS011;5769;47.998;7.788;2022-10-31T03:34:36;125.97;;;23.77;;
11425;SDS011;5769;47.998;7.788;2022-10-31T03:37:05;127.40;;;24.03;;
11425;SDS011;5769;47.998;7.788;2022-10-31T03:39:34;126.90;;;24.17;;
11425;SDS011;5769;47.998;7.788;2022-10-31T03:42:05;127.63;;;24.10;;
11425;SDS011;5769;47.998;7.788;2022-10-31T03:44:35;126.27;;;23.90;;
11425;SDS011;5769;47.998;7.788;2022-10-31T03:47:04;127.13;;;24.00;;
11425;SDS011;5769;47.998;7.788;2022-10-31T03:49:31;124.33;;;23.97;;
11425;SDS011;5769;47.998;7.788;2022-10-31T03:52:01;123.87;;;23.93;;
11425;SDS011;5769;47.998;7.788;2022-10-31T03:54:35;127.13;;;24.00;;
11425;SDS011;5769;47.998;7.788;2022-10-31T03:57:06;126.90;;;23.60;;
11425;SDS011;5769;47.998;7.788;2022-10-31T03:59:41;126.80;;;23.60;;
11425;SDS011;5769;47.998;7.788;2022-10-31T04:02:11;126.47;;;23.70;;
11425;SDS011;5769;47.998;7.788;2022-10-31T04:04:41;127.20;;;23.67;;
11425;SDS011;5769;47.998;7.788;2022-10-31T04:07:11;126.27;;;23.47;;
11425;SDS011;5769;47.998;7.788;2022-10-31T04:09:40;126.37;;;23.60;;
11425;SDS011;5769;47.998;7.788;2022-10-31T04:12:10;125.90;;;23.53;;
11425;SDS011;5769;47.998;7.788;2022-10-31T04:14:40;126.83;;;23.63;;
11425;SDS011;5769;47.998;7.788;2022-10-31T04:17:09;125.57;;;23.60;;
11425;SDS011;5769;47.998;7.788;2022-10-31T04:19:38;127.07;;;23.63;;
11425;SDS011;5769;47.998;7.788;2022-10-31T04:22:05;127.10;;;23.70;;
11425;SDS011;5769;47.998;7.788;2022-10-31T04:24:33;127.33;;;23.63;;
11425;SDS011;5769;47.998;7.788;2022-10-31T04:27:00;126.67;;;23.63;;
11425;SDS011;5769;47.998;7.788;2022-10-31T04:29:27;127.20;;;23.63;;
11425;SDS011;5769;47.998;7.788;2022-10-31T04:31:53;127.20;;;24.00;;
11425;SDS011;5769;47.998;7.788;2022-10-31T04:34:20;126.60;;;23.90;;
11425;SDS011;5769;47.998;7.788;2022-10-31T04:36:47;126.73;;;23.73;;
11425;SDS011;5769;47.998;7.788;2022-10-31T04:39:13;126.83;;;23.73;;
11425;SDS011;5769;47.998;7.788;2022-10-31T04:41:41;126.50;;;23.87;;
11425;SDS011;5769;47.998;7.788;2022-10-31T04:44:08;127.03;;;24.00;;
11425;SDS011;5769;47.998;7.788;2022-10-31T04:46:35;127.20;;;23.70;;
11425;SDS011;5769;47.998;7.788;2022-10-31T04:49:01;126.00;;;23.47;;
11425;SDS011;5769;47.998;7.788;2022-10-31T04:51:28;126.90;;;23.47;;
11425;SDS011;5769;47.998;7.788;2022-10-31T04:53:55;127.23;;;23.60;;
11425;SDS011;5769;47.998;7.788;2022-10-31T04:56:21;125.47;;;23.37;;
11425;SDS011;5769;47.998;7.788;2022-10-31T04:58:49;125.43;;;23.43;;
11425;SDS011;5769;47.998;7.788;2022-10-31T05:01:16;127.37;;;23.70;;
11425;SDS011;5769;47.998;7.788;2022-10-31T05:03:43;125.73;;;23.63;;
11425;SDS011;5769;47.998;7.788;2022-10-31T05:06:09;126.53;;;23.50;;
11425;SDS011;5769;47.998;7.788;2022-10-31T05:08:36;126.87;;;23.77;;
11425;SDS011;5769;47.998;7.788;2022-10-31T05:11:03;127.03;;;23.83;;
11425;SDS011;5769;47.998;7.788;2022-10-31T05:13:31;126.27;;;23.47;;
11425;SDS011;5769;47.998;7.788;2022-10-31T05:15:59;125.73;;;23.73;;
11425;SDS011;5769;47.998;7.788;2022-10-31T05:18:26;125.83;;;23.73;;
11425;SDS011;5769;47.998;7.788;2022-10-31T05:20:52;126.73;;;23.73;;
11425;SDS011;5769;47.998;7.788;2022-10-31T05:23:19;127.03;;;23.70;;
11425;SDS011;5769;47.998;7.788;2022-10-31T05:25:46;126.93;;;23.60;;
11425;SDS011;5769;47.998;7.788;2022-10-31T05:28:12;127.07;;;23.53;;
11425;SDS011;5769;47.998;7.788;2022-10-31T05:30:39;128.33;;;24.13;;
11425;SDS011;5769;47.998;7.788;2022-10-31T05:33:07;126.00;;;23.67;;
11425;SDS011;5769;47.998;7.788;2022-10-31T05:35:34;126.80;;;23.60;;
11425;SDS011;5769;47.998;7.788;2022-10-31T05:38:00;126.87;;;23.70;;
11425;SDS011;5769;47.998;7.788;2022-10-31T05:40:27;127.07;;;23.67;;
11425;SDS011;5769;47.998;7.788;2022-10-31T05:42:55;127.23;;;23.90;;
11425;SDS011;5769;47.998;7.788;2022-10-31T05:45:23;127.30;;;23.83;;
11425;SDS011;5769;47.998;7.788;2022-10-31T05:47:50;126.33;;;23.57;;
11425;SDS011;5769;47.998;7.788;2022-10-31T05:50:19;127.03;;;23.53;;
11425;SDS011;5769;47.998;7.788;2022-10-31T05:52:46;125.73;;;23.57;;
11425;SDS011;5769;47.998;7.788;2022-10-31T05:55:19;126.63;;;23.50;;
11425;SDS011;5769;47.998;7.788;2022-10-31T05:57:46;126.83;;;23.70;;
11425;SDS011;5769;47.998;7.788;2022-10-31T06:00:13;126.63;;;23.60;;
11425;SDS011;5769;47.998;7.788;2022-10-31T06:02:39;127.23;;;23.60;;
11425;SDS011;5769;47.998;7.788;2022-10-31T06:05:06;127.40;;;23.63;;
11425;SDS011;5769;47.998;7.788;2022-10-31T06:07:35;127.17;;;23.63;;
11425;SDS011;5769;47.998;7.788;2022-10-31T06:10:02;126.87;;;23.67;;
11425;SDS011;5769;47.998;7.788;2022-10-31T06:12:30;126.93;;;23.40;;
11425;SDS011;5769;47.998;7.788;2022-10-31T06:14:57;127.07;;;23.70;;
11425;SDS011;5769;47.998;7.788;2022-10-31T06:17:24;127.80;;;23.80;;
11425;SDS011;5769;47.998;7.788;2022-10-31T06:19:50;126.97;;;23.60;;
11425;SDS011;5769;47.998;7.788;2022-10-31T06:22:17;127.17;;;23.57;;
11425;SDS011;5769;47.998;7.788;2022-10-31T06:24:45;126.50;;;23.57;;
11425;SDS011;5769;47.998;7.788;2022-10-31T06:27:12;126.73;;;23.57;;
11425;SDS011;5769;47.998;7.788;2022-10-31T06:29:38;126.40;;;23.70;;
11425;SDS011;5769;47.998;7.788;2022-10-31T06:32:05;126.80;;;23.57;;
11425;SDS011;5769;47.998;7.788;2022-10-31T06:34:32;128.17;;;23.90;;
11425;SDS011;5769;47.998;7.788;2022-10-31T06:36:58;126.70;;;23.83;;
11425;SDS011;5769;47.998;7.788;2022-10-31T06:39:25;127.83;;;23.70;;
11425;SDS011;5769;47.998;7.788;2022-10-31T06:41:53;127.10;;;23.57;;
11425;SDS011;5769;47.998;7.788;2022-10-31T06:44:20;125.93;;;23.70;;
11425;SDS011;5769;47.998;7.788;2022-10-31T06:46:46;126.57;;;23.37;;
11425;SDS011;5769;47.998;7.788;2022-10-31T06:49:14;127.67;;;23.87;;
11425;SDS011;5769;47.998;7.788;2022-10-31T06:51:40;126.73;;;23.57;;
11425;SDS011;5769;47.998;7.788;2022-10-31T06:54:08;127.13;;;23.70;;
11425;SDS011;5769;47.998;7.788;2022-10-31T06:56:34;127.30;;;23.77;;
11425;SDS011;5769;47.998;7.788;2022-10-31T06:59:03;127.10;;;23.63;;
11425;SDS011;5769;47.998;7.788;2022-10-31T07:01:29;126.67;;;23.90;;
11425;SDS011;5769;47.998;7.788;2022-10-31T07:03:56;126.00;;;23.77;;
11425;SDS011;5769;47.998;7.788;2022-10-31T07:06:23;126.73;;;24.13;;
11425;SDS011;5769;47.998;7.788;2022-10-31T07:08:49;126.27;;;23.87;;
11425;SDS011;5769;47.998;7.788;2022-10-31T07:11:16;127.87;;;23.80;;
11425;SDS011;5769;47.998;7.788;2022-10-31T07:13:43;125.77;;;23.83;;
11425;SDS011;5769;47.998;7.788;2022-10-31T07:16:11;126.87;;;23.57;;
11425;SDS011;5769;47.998;7.788;2022-10-31T07:18:38;126.73;;;23.80;;
11425;SDS011;5769;47.998;7.788;2022-10-31T07:21:05;126.93;;;24.00;;
11425;SDS011;5769;47.998;7.788;2022-10-31T07:23:32;127.60;;;24.20;;
11425;SDS011;5769;47.998;7.788;2022-10-31T07:25:59;126.73;;;23.90;;
11425;SDS011;5769;47.998;7.788;2022-10-31T07:28:26;126.87;;;23.90;;
11425;SDS011;5769;47.998;7.788;2022-10-31T07:30:53;127.43;;;24.20;;
11425;SDS011;5769;47.998;7.788;2022-10-31T07:33:22;127.23;;;24.10;;
11425;SDS011;5769;47.998;7.788;2022-10-31T07:35:51;125.43;;;24.10;;
11425;SDS011;5769;47.998;7.788;2022-10-31T07:38:18;126.20;;;24.23;;
11425;SDS011;5769;47.998;7.788;2022-10-31T07:40:48;126.13;;;24.13;;
11425;SDS011;5769;47.998;7.788;2022-10-31T07:43:17;124.13;;;24.10;;
11425;SDS011;5769;47.998;7.788;2022-10-31T07:45:43;126.33;;;24.30;;
11425;SDS011;5769;47.998;7.788;2022-10-31T07:48:14;126.37;;;24.23;;
11425;SDS011;5769;47.998;7.788;2022-10-31T07:50:42;124.63;;;24.17;;
11425;SDS011;5769;47.998;7.788;2022-10-31T07:53:09;123.80;;;24.07;;
11425;SDS011;5769;47.998;7.788;2022-10-31T07:55:37;123.43;;;24.00;;
11425;SDS011;5769;47.998;7.788;2022-10-31T07:58:05;125.90;;;24.17;;
11425;SDS011;5769;47.998;7.788;2022-10-31T08:00:33;125.80;;;24.17;;
11425;SDS011;5769;47.998;7.788;2022-10-31T08:03:01;126.57;;;24.10;;
11425;SDS011;5769;47.998;7.788;2022-10-31T08:05:29;125.93;;;23.93;;
11425;SDS011;5769;47.998;7.788;2022-10-31T08:07:58;126.00;;;23.87;;
11425;SDS011;5769;47.998;7.788;2022-10-31T08:10:26;126.23;;;24.10;;
11425;SDS011;5769;47.998;7.788;2022-10-31T08:12:56;125.87;;;24.20;;
11425;SDS011;5769;47.998;7.788;2022-10-31T08:15:23;125.80;;;24.20;;
11425;SDS011;5769;47.998;7.788;2022-10-31T08:17:51;123.70;;;24.00;;
11425;SDS011;5769;47.998;7.788;2022-10-31T08:20:17;123.27;;;24.10;;
11425;SDS011;5769;47.998;7.788;2022-10-31T08:22:52;122.43;;;24.17;;
11425;SDS011;5769;47.998;7.788;2022-10-31T08:25:21;120.80;;;23.83;;
11425;SDS011;5769;47.998;7.788;2022-10-31T08:27:48;119.67;;;23.80;;
11425;SDS011;5769;47.998;7.788;2022-10-31T08:30:16;120.57;;;23.83;;
11425;SDS011;5769;47.998;7.788;2022-10-31T08:32:43;121.63;;;23.93;;
11425;SDS011;5769;47.998;7.788;2022-10-31T08:35:10;121.60;;;23.90;;
11425;SDS011;5769;47.998;7.788;2022-10-31T08:37:37;122.20;;;23.93;;
11425;SDS011;5769;47.998;7.788;2022-10-31T08:40:04;121.10;;;23.90;;
11425;SDS011;5769;47.998;7.788;2022-10-31T08:42:33;125.23;;;24.30;;
11425;SDS011;5769;47.998;7.788;2022-10-31T08:45:01;125.67;;;24.00;;
11425;SDS011;5769;47.998;7.788;2022-10-31T08:47:27;126.33;;;23.60;;
11425;SDS011;5769;47.998;7.788;2022-10-31T08:49:54;126.80;;;24.10;;
11425;SDS011;5769;47.998;7.788;2022-10-31T08:52:22;126.23;;;24.10;;
11425;SDS011;5769;47.998;7.788;2022-10-31T08:54:50;126.40;;;24.03;;
11425;SDS011;5769;47.998;7.788;2022-10-31T08:57:16;127.60;;;24.20;;
11425;SDS011;5769;47.998;7.788;2022-10-31T08:59:44;125.17;;;23.77;;
11425;SDS011;5769;47.998;7.788;2022-10-31T09:02:11;126.10;;;24.10;;
11425;SDS011;5769;47.998;7.788;2022-10-31T09:04:38;126.80;;;24.00;;
11425;SDS011;5769;47.998;7.788;2022-10-31T09:07:04;125.67;;;24.20;;
11425;SDS011;5769;47.998;7.788;2022-10-31T09:09:31;123.07;;;23.93;;
11425;SDS011;5769;47.998;7.788;2022-10-31T09:11:58;122.93;;;23.97;;
11425;SDS011;5769;47.998;7.788;2022-10-31T09:14:25;123.60;;;24.13;;
11425;SDS011;5769;47.998;7.788;2022-10-31T09:16:53;122.67;;;23.97;;
11425;SDS011;5769;47.998;7.788;2022-10-31T09:19:19;121.97;;;23.80;;
11425;SDS011;5769;47.998;7.788;2022-10-31T09:21:46;123.77;;;24.10;;
11425;SDS011;5769;47.998;7.788;2022-10-31T09:24:13;124.53;;;24.20;;
11425;SDS011;5769;47.998;7.788;2022-10-31T09:26:39;126.63;;;23.97;;
11425;SDS011;5769;47.998;7.788;2022-10-31T09:29:06;127.27;;;23.93;;
11425;SDS011;5769;47.998;7.788;2022-10-31T09:31:34;126.63;;;23.77;;
11425;SDS011;5769;47.998;7.788;2022-10-31T09:34:02;126.50;;;23.70;;
11425;SDS011;5769;47.998;7.788;2022-10-31T09:36:29;126.47;;;23.70;;
11425;SDS011;5769;47.998;7.788;2022-10-31T09:38:56;126.40;;;23.60;;
11425;SDS011;5769;47.998;7.788;2022-10-31T09:41:24;125.93;;;23.57;;
11425;SDS011;5769;47.998;7.788;2022-10-31T09:43:58;126.30;;;23.77;;
11425;SDS011;5769;47.998;7.788;2022-10-31T09:46:29;126.60;;;23.73;;
11425;SDS011;5769;47.998;7.788;2022-10-31T09:49:13;126.67;;;23.73;;
11425;SDS011;5769;47.998;7.788;2022-10-31T09:51:51;127.27;;;23.77;;
11425;SDS011;5769;47.998;7.788;2022-10-31T09:54:25;127.13;;;23.77;;
11425;SDS011;5769;47.998;7.788;2022-10-31T09:56:56;126.53;;;23.70;;
11425;SDS011;5769;47.998;7.788;2022-10-31T09:59:25;127.60;;;23.90;;
11425;SDS011;5769;47.998;7.788;2022-10-31T10:01:55;127.13;;;23.87;;
11425;SDS011;5769;47.998;7.788;2022-10-31T10:04:32;127.47;;;23.90;;
11425;SDS011;5769;47.998;7.788;2022-10-31T10:07:06;126.70;;;23.80;;
11425;SDS011;5769;47.998;7.788;2022-10-31T10:09:39;126.00;;;23.63;;
11425;SDS011;5769;47.998;7.788;2022-10-31T10:12:09;126.73;;;23.87;;
11425;SDS011;5769;47.998;7.788;2022-10-31T10:14:46;127.47;;;24.03;;
11425;SDS011;5769;47.998;7.788;2022-10-31T10:17:29;125.80;;;23.80;;
11425;SDS011;5769;47.998;7.788;2022-10-31T10:22:58;124.83;;;24.03;;
11425;SDS011;5769;47.998;7.788;2022-10-31T10:25:39;124.07;;;23.97;;
11425;SDS011;5769;47.998;7.788;2022-10-31T10:28:09;124.43;;;24.10;;
11425;SDS011;5769;47.998;7.788;2022-10-31T10:30:46;123.50;;;23.97;;
11425;SDS011;5769;47.998;7.788;2022-10-31T10:33:18;124.20;;;23.93;;
11425;SDS011;5769;47.998;7.788;2022-10-31T10:35:50;126.23;;;24.10;;
11425;SDS011;5769;47.998;7.788;2022-10-31T10:38:28;125.13;;;24.03;;
11425;SDS011;5769;47.998;7.788;2022-10-31T10:41:27;126.47;;;24.10;;
11425;SDS011;5769;47.998;7.788;2022-10-31T10:43:57;125.50;;;24.07;;
11425;SDS011;5769;47.998;7.788;2022-10-31T10:46:25;127.13;;;24.23;;
11425;SDS011;5769;47.998;7.788;2022-10-31T10:49:17;126.13;;;23.87;;
11425;SDS011;5769;47.998;7.788;2022-10-31T10:51:47;126.83;;;23.90;;
11425;SDS011;5769;47.998;7.788;2022-10-31T10:54:33;126.57;;;24.17;;
11425;SDS011;5769;47.998;7.788;2022-10-31T10:57:21;124.77;;;24.07;;
11425;SDS011;5769;47.998;7.788;2022-10-31T10:59:53;125.37;;;24.10;;
11425;SDS011;5769;47.998;7.788;2022-10-31T11:02:22;125.20;;;24.13;;
11425;SDS011;5769;47.998;7.788;2022-10-31T11:04:51;126.00;;;24.13;;
11425;SDS011;5769;47.998;7.788;2022-10-31T11:07:21;125.50;;;24.03;;
11425;SDS011;5769;47.998;7.788;2022-10-31T11:09:48;125.80;;;24.20;;
11425;SDS011;5769;47.998;7.788;2022-10-31T11:12:17;126.37;;;24.20;;
11425;SDS011;5769;47.998;7.788;2022-10-31T11:14:48;125.70;;;24.20;;
11425;SDS011;5769;47.998;7.788;2022-10-31T11:17:20;124.83;;;24.20;;
11425;SDS011;5769;47.998;7.788;2022-10-31T11:22:55;126.40;;;24.07;;
11425;SDS011;5769;47.998;7.788;2022-10-31T11:25:28;126.53;;;24.07;;
11425;SDS011;5769;47.998;7.788;2022-10-31T11:28:01;126.07;;;24.00;;
11425;SDS011;5769;47.998;7.788;2022-10-31T11:30:29;126.83;;;24.10;;
11425;SDS011;5769;47.998;7.788;2022-10-31T11:33:02;126.03;;;24.23;;
11425;SDS011;5769;47.998;7.788;2022-10-31T11:35:34;126.03;;;24.03;;
11425;SDS011;5769;47.998;7.788;2022-10-31T11:38:13;126.20;;;24.17;;
11425;SDS011;5769;47.998;7.788;2022-10-31T11:40:50;126.23;;;24.07;;
11425;SDS011;5769;47.998;7.788;2022-10-31T11:43:19;125.87;;;23.93;;
11425;SDS011;5769;47.998;7.788;2022-10-31T11:45:49;125.87;;;23.97;;
11425;SDS011;5769;47.998;7.788;2022-10-31T11:48:17;126.23;;;24.00;;
11425;SDS011;5769;47.998;7.788;2022-10-31T11:50:49;125.90;;;24.10;;
11425;SDS011;5769;47.998;7.788;2022-10-31T11:53:20;125.77;;;24.20;;
11425;SDS011;5769;47.998;7.788;2022-10-31T11:56:00;126.70;;;24.20;;
11425;SDS011;5769;47.998;7.788;2022-10-31T11:58:38;125.87;;;24.13;;
11425;SDS011;5769;47.998;7.788;2022-10-31T12:01:08;125.53;;;24.13;;
11425;SDS011;5769;47.998;7.788;2022-10-31T12:03:52;125.33;;;24.13;;
11425;SDS011;5769;47.998;7.788;2022-10-31T12:06:27;125.03;;;24.10;;
11425;SDS011;5769;47.998;7.788;2022-10-31T12:09:04;126.13;;;24.20;;
11425;SDS011;5769;47.998;7.788;2022-10-31T12:11:46;125.83;;;24.20;;
11425;SDS011;5769;47.998;7.788;2022-10-31T12:14:27;125.43;;;24.17;;
11425;SDS011;5769;47.998;7.788;2022-10-31T12:17:02;125.10;;;24.17;;
11425;SDS011;5769;47.998;7.788;2022-10-31T12:19:35;125.53;;;24.07;;
11425;SDS011;5769;47.998;7.788;2022-10-31T12:22:08;125.73;;;24.10;;
11425;SDS011;5769;47.998;7.788;2022-10-31T12:24:47;125.80;;;24.20;;
11425;SDS011;5769;47.998;7.788;2022-10-31T12:27:27;125.83;;;24.13;;
11425;SDS011;5769;47.998;7.788;2022-10-31T12:30:12;126.50;;;24.20;;
11425;SDS011;5769;47.998;7.788;2022-10-31T12:32:50;126.07;;;24.17;;
11425;SDS011;5769;47.998;7.788;2022-10-31T12:35:43;126.10;;;24.20;;
11425;SDS011;5769;47.998;7.788;2022-10-31T12:41:26;125.03;;;24.07;;
11425;SDS011;5769;47.998;7.788;2022-10-31T12:44:04;126.10;;;24.07;;
11425;SDS011;5769;47.998;7.788;2022-10-31T12:46:49;126.03;;;24.10;;
11425;SDS011;5769;47.998;7.788;2022-10-31T12:49:38;126.40;;;24.17;;
11425;SDS011;5769;47.998;7.788;2022-10-31T12:52:15;126.67;;;24.07;;
11425;SDS011;5769;47.998;7.788;2022-10-31T12:54:59;126.77;;;24.13;;
11425;SDS011;5769;47.998;7.788;2022-10-31T12:57:38;126.73;;;24.20;;
11425;SDS011;5769;47.998;7.788;2022-10-31T13:00:11;126.47;;;23.97;;
11425;SDS011;5769;47.998;7.788;2022-10-31T13:02:42;125.67;;;24.13;;
11425;SDS011;5769;47.998;7.788;2022-10-31T13:05:16;126.67;;;24.20;;
11425;SDS011;5769;47.998;7.788;2022-10-31T13:07:49;126.33;;;24.13;;
11425;SDS011;5769;47.998;7.788;2022-10-31T13:10:22;126.17;;;24.10;;
11425;SDS011;5769;47.998;7.788;2022-10-31T13:12:57;126.37;;;24.00;;
11425;SDS011;5769;47.998;7.788;2022-10-31T13:15:29;125.97;;;24.10;;
11425;SDS011;5769;47.998;7.788;2022-10-31T13:17:59;126.37;;;24.07;;
11425;SDS011;5769;47.998;7.788;2022-10-31T13:20:29;126.87;;;24.20;;
11425;SDS011;5769;47.998;7.788;2022-10-31T13:23:05;126.13;;;23.97;;
11425;SDS011;5769;47.998;7.788;2022-10-31T13:25:38;126.03;;;24.20;;
11425;SDS011;5769;47.998;7.788;2022-10-31T13:28:15;126.80;;;24.10;;
11425;SDS011;5769;47.998;7.788;2022-10-31T13:30:51;126.40;;;24.20;;
11425;SDS011;5769;47.998;7.788;2022-10-31T13:33:25;125.67;;;24.13;;
11425;SDS011;5769;47.998;7.788;2022-10-31T13:36:08;125.10;;;24.07;;
11425;SDS011;5769;47.998;7.788;2022-10-31T13:38:46;126.17;;;24.17;;
11425;SDS011;5769;47.998;7.788;2022-10-31T13:41:21;126.27;;;24.10;;
11425;SDS011;5769;47.998;7.788;2022-10-31T13:44:03;125.73;;;24.13;;
11425;SDS011;5769;47.998;7.788;2022-10-31T13:46:37;124.77;;;24.00;;
11425;SDS011;5769;47.998;7.788;2022-10-31T13:49:23;125.87;;;24.20;;
11425;SDS011;5769;47.998;7.788;2022-10-31T13:52:16;125.60;;;24.20;;
11425;SDS011;5769;47.998;7.788;2022-10-31T13:54:49;126.17;;;24.10;;
11425;SDS011;5769;47.998;7.788;2022-10-31T13:57:22;125.10;;;24.07;;
11425;SDS011;5769;47.998;7.788;2022-10-31T13:59:58;127.27;;;24.00;;
11425;SDS011;5769;47.998;7.788;2022-10-31T14:02:27;126.47;;;23.97;;
11425;SDS011;5769;47.998;7.788;2022-10-31T14:04:56;126.27;;;24.00;;
11425;SDS011;5769;47.998;7.788;2022-10-31T14:07:25;125.37;;;23.90;;
11425;SDS011;5769;47.998;7.788;2022-10-31T14:09:57;125.93;;;24.00;;
11425;SDS011;5769;47.998;7.788;2022-10-31T14:12:29;126.70;;;24.03;;
11425;SDS011;5769;47.998;7.788;2022-10-31T14:15:19;127.17;;;24.00;;
11425;SDS011;5769;47.998;7.788;2022-10-31T14:17:52;126.17;;;24.07;;
11425;SDS011;5769;47.998;7.788;2022-10-31T14:26:29;124.83;;;24.07;;
11425;SDS011;5769;47.998;7.788;2022-10-31T14:31:55;125.13;;;24.10;;
11425;SDS011;5769;47.998;7.788;2022-10-31T14:34:38;125.93;;;24.20;;
11425;SDS011;5769;47.998;7.788;2022-10-31T14:37:19;126.47;;;24.10;;
11425;SDS011;5769;47.998;7.788;2022-10-31T14:40:08;125.93;;;24.17;;
11425;SDS011;5769;47.998;7.788;2022-10-31T14:43:02;126.23;;;24.20;;
11425;SDS011;5769;47.998;7.788;2022-10-31T14:45:57;124.37;;;23.93;;
11425;SDS011;5769;47.998;7.788;2022-10-31T14:48:50;125.17;;;24.20;;
11425;SDS011;5769;47.998;7.788;2022-10-31T14:51:33;125.27;;;24.10;;
11425;SDS011;5769;47.998;7.788;2022-10-31T14:54:03;124.37;;;24.03;;
11425;SDS011;5769;47.998;7.788;2022-10-31T14:56:32;124.73;;;24.00;;
11425;SDS011;5769;47.998;7.788;2022-10-31T14:59:02;124.47;;;24.00;;
11425;SDS011;5769;47.998;7.788;2022-10-31T15:01:34;124.73;;;24.17;;
11425;SDS011;5769;47.998;7.788;2022-10-31T15:04:14;125.97;;;24.27;;